Time;durP1;ratioP1;P1;durP2;ratioP2;P2;SDS_P1;SDS_P2;PMS_P1;PMS_P2;Temp;Humidity;BMP_temperature;BMP_pressure;BME280_temperature;BME280_humidity;BME280_pressure;Samples;Min_cycle;Max_cycle;Signal;HPM_P1;HPM_P2
2023/05/31 00:02:13;;;;;;;4.17;2.33;;;20.90;34.50;;;;;;5033740;28;20197;-48
2023/05/31 00:04:38;;;;;;;2.73;2.20;;;20.80;34.20;;;;;;5033816;28;20424;-51
2023/05/31 00:07:05;;;;;;;2.30;1.77;;;20.80;34.20;;;;;;5047320;28;20788;-52
2023/05/31 00:09:31;;;;;;;9.10;2.50;;;21.00;34.00;;;;;;5044374;28;20208;-49
2023/05/31 00:11:57;;;;;;;2.93;2.57;;;21.00;33.70;;;;;;5033636;28;20428;-51
2023/05/31 00:14:23;;;;;;;2.13;1.93;;;20.80;33.50;;;;;;5033700;28;20482;-53
2023/05/31 00:16:48;;;;;;;3.00;2.37;;;20.70;33.70;;;;;;5033689;28;20229;-47
2023/05/31 00:19:14;;;;;;;2.40;1.83;;;20.50;33.70;;;;;;5033084;28;20201;-49
2023/05/31 00:21:40;;;;;;;2.87;2.33;;;20.40;34.10;;;;;;5033536;28;20618;-49
2023/05/31 00:24:06;;;;;;;5.97;2.47;;;20.50;34.10;;;;;;5033658;28;20195;-50
2023/05/31 00:26:31;;;;;;;3.00;2.10;;;20.70;33.90;;;;;;5033272;28;20586;-52
2023/05/31 00:28:57;;;;;;;3.77;2.10;;;20.70;33.60;;;;;;5032972;28;20783;-54
2023/05/31 00:31:23;;;;;;;3.93;2.20;;;20.70;33.80;;;;;;5033498;28;20277;-51
2023/05/31 00:33:49;;;;;;;6.70;2.50;;;20.60;33.80;;;;;;5031697;28;20197;-51
2023/05/31 00:36:15;;;;;;;3.57;2.13;;;20.60;33.90;;;;;;5033048;28;20467;-52
2023/05/31 00:38:40;;;;;;;2.37;2.00;;;20.60;34.00;;;;;;5033101;28;20439;-52
2023/05/31 00:41:09;;;;;;;4.13;2.20;;;20.80;33.80;;;;;;5033216;28;20264;-52
2023/05/31 00:43:35;;;;;;;2.30;2.10;;;20.80;33.80;;;;;;5033161;28;20224;-48
2023/05/31 00:46:01;;;;;;;7.03;2.20;;;20.60;33.90;;;;;;5032997;28;20455;-52
2023/05/31 00:48:26;;;;;;;4.03;2.00;;;20.60;34.00;;;;;;5032654;28;20201;-51
2023/05/31 00:50:52;;;;;;;3.60;2.40;;;20.70;34.00;;;;;;5032698;28;20427;-52
2023/05/31 00:53:19;;;;;;;2.50;2.30;;;20.90;33.90;;;;;;5037200;28;20245;-50
2023/05/31 00:55:45;;;;;;;3.00;1.77;;;20.60;34.10;;;;;;5050483;28;20648;-51
2023/05/31 00:58:11;;;;;;;3.27;2.10;;;20.50;34.50;;;;;;5032548;28;20645;-51
2023/05/31 01:00:37;;;;;;;3.67;2.80;;;20.40;34.60;;;;;;5031152;28;20279;-50
2023/05/31 01:03:02;;;;;;;2.40;2.20;;;20.10;34.80;;;;;;5032662;28;22068;-52
2023/05/31 01:05:28;;;;;;;6.70;2.17;;;20.00;34.90;;;;;;5034704;28;20233;-52
2023/05/31 01:07:54;;;;;;;6.50;2.10;;;20.10;34.90;;;;;;5052483;28;20266;-51
2023/05/31 01:10:20;;;;;;;3.93;1.93;;;20.20;34.80;;;;;;5036686;28;20432;-49
2023/05/31 01:13:16;;;;;;;4.30;2.20;;;20.10;34.70;;;;;;5032548;28;20197;-50
2023/05/31 01:15:50;;;;;;;4.90;2.23;;;20.00;35.00;;;;;;5032481;28;20428;-51
2023/05/31 01:18:44;;;;;;;3.03;2.60;;;19.70;35.40;;;;;;5031986;28;20843;-50
2023/05/31 01:21:12;;;;;;;5.37;2.40;;;19.50;36.00;;;;;;5032540;28;20889;-52
2023/05/31 01:24:07;;;;;;;3.20;1.90;;;19.50;35.80;;;;;;5032303;28;20473;-47
2023/05/31 01:26:40;;;;;;;3.77;2.20;;;19.60;35.70;;;;;;5030708;28;20482;-48
2023/05/31 01:29:17;;;;;;;5.43;2.37;;;19.70;35.60;;;;;;5031977;28;20424;-50
2023/05/31 01:31:45;;;;;;;3.97;2.70;;;19.60;36.10;;;;;;5032160;28;20783;-50
2023/05/31 01:34:11;;;;;;;3.47;1.90;;;19.70;35.50;;;;;;5032173;28;20424;-51
2023/05/31 01:36:37;;;;;;;2.53;2.33;;;19.60;35.70;;;;;;5032194;28;20818;-48
2023/05/31 01:39:03;;;;;;;3.13;2.50;;;19.60;35.80;;;;;;5031693;28;20424;-51
2023/05/31 01:41:33;;;;;;;5.23;2.40;;;19.70;35.70;;;;;;5032067;28;20197;-50
2023/05/31 01:44:00;;;;;;;2.77;2.07;;;19.70;35.80;;;;;;5031815;28;20929;-48
2023/05/31 01:46:26;;;;;;;3.50;2.10;;;19.70;35.80;;;;;;5031790;28;20428;-52
2023/05/31 01:48:53;;;;;;;2.90;2.30;;;19.80;35.80;;;;;;5031639;28;20424;-50
2023/05/31 01:51:20;;;;;;;4.87;2.60;;;19.70;35.70;;;;;;5032086;28;20478;-49
2023/05/31 01:53:46;;;;;;;3.80;1.93;;;19.60;36.00;;;;;;5038311;28;20431;-51
2023/05/31 01:56:12;;;;;;;3.50;2.23;;;19.40;36.30;;;;;;5046101;28;20431;-47
2023/05/31 01:58:48;;;;;;;4.77;2.23;;;19.60;36.10;;;;;;5031380;28;20658;-50
2023/05/31 02:01:16;;;;;;;5.33;2.37;;;19.80;36.00;;;;;;5038860;28;20609;-47
2023/05/31 02:03:42;;;;;;;7.53;2.57;;;19.50;36.10;;;;;;5050747;28;20926;-49
2023/05/31 02:06:08;;;;;;;3.73;1.90;;;19.70;36.20;;;;;;5051455;28;20550;-47
2023/05/31 02:08:33;;;;;;;3.90;2.20;;;19.80;35.90;;;;;;5050667;28;20907;-48
2023/05/31 02:10:59;;;;;;;3.43;2.40;;;20.00;35.70;;;;;;5031687;28;20595;-52
2023/05/31 02:13:27;;;;;;;3.20;1.93;;;20.00;35.60;;;;;;5031607;28;20266;-50
2023/05/31 02:15:54;;;;;;;3.43;2.30;;;20.20;35.30;;;;;;5031741;28;20189;-51
2023/05/31 02:18:20;;;;;;;3.23;2.00;;;20.10;35.30;;;;;;5030197;28;21614;-53
2023/05/31 02:20:48;;;;;;;4.00;2.00;;;20.00;35.40;;;;;;5031085;28;20533;-47
2023/05/31 02:23:14;;;;;;;3.27;2.50;;;20.00;35.60;;;;;;5031549;28;20200;-51
2023/05/31 02:25:40;;;;;;;2.00;1.80;;;20.00;35.60;;;;;;5031623;28;20883;-46
2023/05/31 02:28:06;;;;;;;3.20;1.97;;;20.20;35.50;;;;;;5031095;28;20789;-52
2023/05/31 02:30:32;;;;;;;3.40;2.00;;;20.40;35.30;;;;;;5031373;28;20428;-48
2023/05/31 02:32:59;;;;;;;3.03;2.33;;;20.50;35.20;;;;;;5031443;28;20708;-48
2023/05/31 02:35:25;;;;;;;2.80;2.30;;;20.60;35.20;;;;;;5031304;28;20436;-50
2023/05/31 02:37:51;;;;;;;2.60;1.60;;;20.70;35.20;;;;;;5031205;28;20498;-48
2023/05/31 02:40:16;;;;;;;2.47;2.27;;;20.70;35.00;;;;;;5030922;28;20189;-47
2023/05/31 02:42:42;;;;;;;2.90;2.23;;;20.80;34.80;;;;;;5031323;28;20280;-50
2023/05/31 02:45:10;;;;;;;4.13;2.10;;;20.80;34.60;;;;;;5029543;28;20198;-48
2023/05/31 02:47:38;;;;;;;4.67;2.33;;;20.80;34.70;;;;;;5031619;28;20502;-46
2023/05/31 02:50:08;;;;;;;3.50;2.30;;;20.90;34.80;;;;;;5030920;28;20438;-47
2023/05/31 02:52:37;;;;;;;6.70;2.30;;;20.80;35.00;;;;;;5031235;28;20436;-48
2023/05/31 02:55:04;;;;;;;6.80;2.63;;;20.80;35.10;;;;;;5049874;28;20459;-52
2023/05/31 02:57:30;;;;;;;2.60;2.10;;;20.80;35.20;;;;;;5035023;28;20491;-47
2023/05/31 02:59:58;;;;;;;2.73;2.00;;;20.80;35.10;;;;;;5030851;28;20412;-48
2023/05/31 03:02:24;;;;;;;3.60;2.37;;;20.70;35.10;;;;;;5031229;28;20201;-48
2023/05/31 03:04:50;;;;;;;3.00;2.20;;;20.70;35.20;;;;;;5031145;28;20486;-47
2023/05/31 03:07:16;;;;;;;3.40;2.27;;;20.70;35.40;;;;;;5047918;28;20199;-48
2023/05/31 03:09:42;;;;;;;4.33;2.07;;;20.70;35.60;;;;;;5040400;28;20434;-48
2023/05/31 03:12:08;;;;;;;2.70;1.93;;;20.70;35.60;;;;;;5029447;28;20514;-49
2023/05/31 03:14:33;;;;;;;3.33;1.90;;;20.70;35.40;;;;;;5032180;28;20197;-47
2023/05/31 03:16:59;;;;;;;3.20;2.40;;;20.60;35.40;;;;;;5034611;28;20490;-47
2023/05/31 03:19:25;;;;;;;2.73;2.17;;;20.60;35.40;;;;;;5034444;28;20234;-51
2023/05/31 03:21:50;;;;;;;2.70;2.07;;;20.70;35.50;;;;;;5034498;28;20559;-49
2023/05/31 03:24:16;;;;;;;5.37;1.83;;;20.60;35.40;;;;;;5034681;28;20260;-48
2023/05/31 03:26:41;;;;;;;7.33;2.77;;;20.60;35.70;;;;;;5034453;28;20186;-49
2023/05/31 03:29:07;;;;;;;3.33;2.00;;;20.60;35.90;;;;;;5033969;28;20193;-47
2023/05/31 03:31:33;;;;;;;3.87;2.40;;;20.60;35.90;;;;;;5034377;28;20291;-49
2023/05/31 03:33:59;;;;;;;34.17;2.77;;;20.50;35.80;;;;;;5034350;28;20278;-51
2023/05/31 03:36:24;;;;;;;2.90;2.57;;;20.50;36.00;;;;;;5034422;28;20683;-49
2023/05/31 03:38:50;;;;;;;5.73;2.43;;;20.50;36.20;;;;;;5032737;28;20424;-47
2023/05/31 03:41:16;;;;;;;6.00;2.67;;;20.50;36.20;;;;;;5034295;28;20197;-49
2023/05/31 03:43:42;;;;;;;3.63;2.27;;;20.40;36.20;;;;;;5034261;28;20201;-48
2023/05/31 03:46:07;;;;;;;3.27;2.40;;;20.40;35.90;;;;;;5034291;28;20201;-47
2023/05/31 03:48:33;;;;;;;2.83;2.30;;;20.40;35.70;;;;;;5033746;28;20199;-47
2023/05/31 03:50:58;;;;;;;2.70;1.93;;;20.40;35.60;;;;;;5034154;28;20293;-48
2023/05/31 03:53:25;;;;;;;2.80;2.50;;;20.50;36.00;;;;;;5039321;28;20648;-50
2023/05/31 03:55:50;;;;;;;4.33;2.07;;;20.40;36.10;;;;;;5051664;28;20197;-47
2023/05/31 03:58:16;;;;;;;3.33;1.80;;;20.40;36.30;;;;;;5033626;28;20502;-48
2023/05/31 04:00:42;;;;;;;3.97;2.00;;;20.40;36.40;;;;;;5033899;28;20605;-51
2023/05/31 04:03:07;;;;;;;2.20;1.93;;;20.30;36.30;;;;;;5033931;28;20280;-50
2023/05/31 04:05:33;;;;;;;3.13;2.00;;;20.30;36.40;;;;;;5034574;28;20977;-47
2023/05/31 04:08:02;;;;;;;2.70;2.30;;;20.30;36.60;;;;;;5053069;28;20192;-47
2023/05/31 04:10:27;;;;;;;4.50;2.33;;;20.30;36.00;;;;;;5036991;28;20610;-47
2023/05/31 04:12:53;;;;;;;3.67;1.80;;;20.30;35.90;;;;;;5033619;28;20462;-47
2023/05/31 04:15:18;;;;;;;5.80;2.23;;;20.40;36.00;;;;;;5033283;28;20193;-48
2023/05/31 04:17:45;;;;;;;2.37;2.03;;;20.40;36.10;;;;;;5033653;28;20636;-48
2023/05/31 04:20:11;;;;;;;2.63;2.10;;;20.40;35.90;;;;;;5033088;28;20196;-47
2023/05/31 04:22:37;;;;;;;3.03;1.90;;;20.50;35.90;;;;;;5033507;28;20432;-47
2023/05/31 04:25:03;;;;;;;2.17;1.93;;;20.50;36.50;;;;;;5033182;28;20439;-47
2023/05/31 04:27:32;;;;;;;6.27;2.20;;;20.50;36.30;;;;;;5032571;28;20223;-48
2023/05/31 04:29:58;;;;;;;3.17;2.60;;;20.60;36.30;;;;;;5032826;28;20186;-47
2023/05/31 04:32:24;;;;;;;4.90;2.27;;;20.50;36.00;;;;;;5031733;28;20435;-48
2023/05/31 04:34:57;;;;;;;3.63;2.73;;;20.50;35.80;;;;;;5033239;28;21663;-47
2023/05/31 04:37:29;;;;;;;4.10;2.47;;;20.60;35.70;;;;;;5033125;28;20561;-47
2023/05/31 04:39:56;;;;;;;2.80;2.03;;;20.60;35.60;;;;;;5032689;28;20439;-50
2023/05/31 04:42:24;;;;;;;2.30;2.00;;;20.60;35.50;;;;;;5032937;28;20428;-47
2023/05/31 04:44:51;;;;;;;2.50;2.13;;;20.70;35.30;;;;;;5032840;28;20428;-48
2023/05/31 04:47:18;;;;;;;2.73;2.30;;;20.70;35.50;;;;;;5032802;28;20432;-49
2023/05/31 04:49:45;;;;;;;5.80;2.13;;;20.80;35.60;;;;;;5039282;28;20521;-48
2023/05/31 04:52:12;;;;;;;4.17;2.10;;;20.60;36.00;;;;;;5052551;28;20485;-51
2023/05/31 04:54:38;;;;;;;3.07;2.20;;;20.60;36.00;;;;;;5037567;28;20425;-47
2023/05/31 04:57:04;;;;;;;3.27;2.17;;;20.60;35.60;;;;;;5032409;28;20491;-49
2023/05/31 04:59:29;;;;;;;4.63;2.43;;;20.40;35.80;;;;;;5037598;28;20185;-48
2023/05/31 05:01:55;;;;;;;2.47;2.20;;;20.40;35.90;;;;;;5052445;28;20196;-47
2023/05/31 05:04:20;;;;;;;3.90;2.33;;;20.50;36.10;;;;;;5052587;28;20189;-47
2023/05/31 05:06:46;;;;;;;3.30;2.23;;;20.30;36.30;;;;;;5052162;28;20662;-48
2023/05/31 05:09:11;;;;;;;2.60;2.00;;;20.30;36.50;;;;;;5045857;28;20634;-49
2023/05/31 05:11:38;;;;;;;2.20;2.00;;;20.30;36.50;;;;;;5032413;28;20200;-48
2023/05/31 05:14:03;;;;;;;4.23;2.17;;;20.50;36.30;;;;;;5032233;28;20276;-47
2023/05/31 05:16:29;;;;;;;3.50;2.30;;;20.50;36.10;;;;;;5032137;28;20586;-46
2023/05/31 05:18:55;;;;;;;3.83;2.13;;;20.60;35.80;;;;;;5031737;28;20617;-50
2023/05/31 05:21:20;;;;;;;5.23;2.47;;;20.70;35.80;;;;;;5032298;28;20413;-48
2023/05/31 05:23:46;;;;;;;3.70;2.00;;;20.90;35.70;;;;;;5030788;28;20203;-51
2023/05/31 05:26:12;;;;;;;5.00;2.53;;;21.00;35.70;;;;;;5031861;28;20240;-46
2023/05/31 05:28:38;;;;;;;3.47;2.53;;;20.90;36.00;;;;;;5031890;28;20196;-47
2023/05/31 05:31:04;;;;;;;4.63;2.37;;;21.00;35.90;;;;;;5032076;28;20910;-47
2023/05/31 05:33:30;;;;;;;8.20;2.60;;;21.00;35.80;;;;;;5031887;28;20527;-48
2023/05/31 05:35:56;;;;;;;6.23;2.47;;;21.10;35.30;;;;;;5032031;28;20200;-47
2023/05/31 05:38:21;;;;;;;4.40;2.33;;;21.20;35.10;;;;;;5030794;28;20887;-46
2023/05/31 05:40:47;;;;;;;2.27;2.07;;;21.30;35.30;;;;;;5032032;28;20274;-48
2023/05/31 05:43:13;;;;;;;3.40;1.90;;;21.40;35.10;;;;;;5031779;28;20548;-47
2023/05/31 05:45:39;;;;;;;3.50;2.10;;;21.40;35.10;;;;;;5032037;28;20193;-48
2023/05/31 05:48:19;;;;;;;4.73;2.97;;;21.40;35.30;;;;;;5031587;28;20431;-54
2023/05/31 05:50:45;;;;;;;5.83;2.27;;;21.60;35.30;;;;;;5029104;28;20683;-53
2023/05/31 05:53:13;;;;;;;5.53;2.17;;;21.60;35.20;;;;;;5034865;28;20423;-50
2023/05/31 05:55:48;;;;;;;4.87;2.07;;;21.60;35.70;;;;;;5050968;28;20192;-54
2023/05/31 05:58:16;;;;;;;4.70;2.47;;;21.70;35.60;;;;;;5029575;28;21069;-50
2023/05/31 06:00:44;;;;;;;2.33;2.13;;;21.70;35.40;;;;;;5031445;28;20462;-52
2023/05/31 06:03:15;;;;;;;2.87;2.27;;;21.90;35.60;;;;;;5031516;28;20434;-52
2023/05/31 06:05:42;;;;;;;4.70;2.40;;;22.00;35.30;;;;;;5035220;28;20470;-52
2023/05/31 06:08:09;;;;;;;3.50;2.13;;;22.10;35.20;;;;;;5050910;28;20489;-51
2023/05/31 06:10:34;;;;;;;8.13;2.07;;;22.20;35.70;;;;;;5033897;28;20442;-46
2023/05/31 06:13:00;;;;;;;4.13;2.00;;;22.40;35.00;;;;;;5031531;28;20423;-47
2023/05/31 06:15:25;;;;;;;3.40;2.40;;;22.50;34.90;;;;;;5031279;28;20556;-49
2023/05/31 06:17:52;;;;;;;3.50;2.20;;;22.50;34.80;;;;;;5029586;28;20256;-49
2023/05/31 06:20:18;;;;;;;4.30;2.10;;;22.50;35.00;;;;;;5031171;28;20243;-48
2023/05/31 06:22:44;;;;;;;3.97;2.20;;;22.70;34.90;;;;;;5031375;28;20922;-49
2023/05/31 06:25:10;;;;;;;5.00;2.40;;;22.90;35.40;;;;;;5031537;28;20435;-49
2023/05/31 06:27:36;;;;;;;3.13;2.30;;;23.00;35.10;;;;;;5031088;28;20197;-49
2023/05/31 06:30:02;;;;;;;2.50;2.30;;;23.20;34.70;;;;;;5031229;28;20435;-49
2023/05/31 06:32:28;;;;;;;3.47;2.30;;;23.20;34.50;;;;;;5031062;28;20562;-50
2023/05/31 06:34:53;;;;;;;4.07;2.53;;;23.30;34.50;;;;;;5031309;28;20922;-48
2023/05/31 06:37:21;;;;;;;3.20;2.43;;;23.00;34.50;;;;;;5031137;28;20574;-47
2023/05/31 06:39:47;;;;;;;3.50;2.20;;;22.80;34.70;;;;;;5030637;28;20197;-47
2023/05/31 06:42:13;;;;;;;5.50;2.43;;;22.50;35.70;;;;;;5031148;28;20889;-46
2023/05/31 06:44:40;;;;;;;3.17;2.27;;;22.60;35.90;;;;;;5029494;28;20466;-47
2023/05/31 06:47:06;;;;;;;3.83;2.40;;;22.50;35.40;;;;;;5031030;28;20428;-47
2023/05/31 06:49:32;;;;;;;5.37;2.53;;;22.50;35.40;;;;;;5031607;28;20527;-49
2023/05/31 06:51:57;;;;;;;3.73;2.50;;;22.70;35.00;;;;;;5034978;28;20243;-47
2023/05/31 06:54:23;;;;;;;4.37;2.10;;;23.00;35.10;;;;;;5047993;28;20196;-47
2023/05/31 06:56:49;;;;;;;5.27;3.10;;;23.00;34.80;;;;;;5044278;28;20229;-47
2023/05/31 06:59:14;;;;;;;3.50;2.10;;;22.80;34.60;;;;;;5034538;28;20684;-47
2023/05/31 07:01:40;;;;;;;4.10;2.53;;;22.90;34.80;;;;;;5034971;28;20554;-49
2023/05/31 07:04:06;;;;;;;3.23;2.67;;;22.90;34.30;;;;;;5034820;28;20200;-49
2023/05/31 07:06:31;;;;;;;4.80;2.77;;;22.90;35.10;;;;;;5045473;28;20236;-51
2023/05/31 07:08:57;;;;;;;3.27;2.30;;;23.10;34.30;;;;;;5050429;28;20193;-50
2023/05/31 07:11:23;;;;;;;4.40;2.37;;;23.30;34.70;;;;;;5033514;28;20566;-49
2023/05/31 07:13:49;;;;;;;5.13;2.40;;;23.40;34.10;;;;;;5034730;28;20434;-49
2023/05/31 07:16:14;;;;;;;4.40;2.60;;;23.70;33.70;;;;;;5034855;28;21333;-49
2023/05/31 07:18:40;;;;;;;5.70;2.73;;;23.80;34.10;;;;;;5034242;28;20193;-49
2023/05/31 07:21:08;;;;;;;4.70;2.50;;;23.90;33.20;;;;;;5034829;28;20243;-49
2023/05/31 07:23:33;;;;;;;3.77;2.20;;;24.00;33.40;;;;;;5034372;28;20224;-50
2023/05/31 07:26:00;;;;;;;4.90;2.77;;;24.10;33.10;;;;;;5034573;28;20510;-49
2023/05/31 07:28:26;;;;;;;4.40;2.37;;;24.20;32.70;;;;;;5034304;28;20188;-51
2023/05/31 07:30:52;;;;;;;6.20;3.30;;;24.30;32.30;;;;;;5034670;28;20440;-47
2023/05/31 07:33:17;;;;;;;5.10;2.97;;;24.50;32.90;;;;;;5034521;28;20193;-47
2023/05/31 07:35:43;;;;;;;6.57;2.10;;;24.30;31.90;;;;;;5034691;28;20625;-48
2023/05/31 07:38:09;;;;;;;4.27;3.07;;;24.20;32.60;;;;;;5032386;28;20229;-47
2023/05/31 07:40:35;;;;;;;3.00;2.40;;;24.40;32.20;;;;;;5034317;28;20420;-48
2023/05/31 07:43:01;;;;;;;3.50;2.30;;;24.60;32.90;;;;;;5034270;28;20255;-46
2023/05/31 07:45:26;;;;;;;3.30;2.80;;;24.70;31.80;;;;;;5034358;28;20428;-47
2023/05/31 07:47:52;;;;;;;5.30;2.20;;;24.80;32.00;;;;;;5034029;28;20657;-47
2023/05/31 07:50:18;;;;;;;4.70;2.70;;;24.70;31.80;;;;;;5034078;28;20292;-48
2023/05/31 07:52:46;;;;;;;6.47;2.50;;;24.80;32.00;;;;;;5034089;28;20208;-47
2023/05/31 07:55:12;;;;;;;4.97;2.70;;;24.80;32.60;;;;;;5053413;28;20435;-47
2023/05/31 07:57:38;;;;;;;11.70;3.03;;;24.90;31.90;;;;;;5035558;28;20917;-48
2023/05/31 08:00:05;;;;;;;4.40;2.83;;;25.10;32.10;;;;;;5034032;28;20507;-51
2023/05/31 08:02:30;;;;;;;5.13;2.10;;;25.50;31.40;;;;;;5031858;28;20201;-47
2023/05/31 08:05:01;;;;;;;4.50;2.87;;;25.90;31.70;;;;;;5033113;28;20988;-47
2023/05/31 08:07:27;;;;;;;3.87;2.77;;;25.80;31.00;;;;;;5051822;28;20184;-47
2023/05/31 08:09:53;;;;;;;3.37;2.40;;;25.60;30.80;;;;;;5042724;28;20751;-47
2023/05/31 08:12:18;;;;;;;4.00;2.57;;;25.70;30.60;;;;;;5033811;28;20196;-49
2023/05/31 08:14:44;;;;;;;2.70;2.50;;;25.90;30.90;;;;;;5033745;28;20243;-47
2023/05/31 08:17:09;;;;;;;3.37;2.33;;;26.10;30.40;;;;;;5033430;28;20228;-48
2023/05/31 08:19:35;;;;;;;4.93;2.60;;;26.20;30.40;;;;;;5033285;28;20189;-46
2023/05/31 08:22:01;;;;;;;6.90;2.57;;;26.30;30.10;;;;;;5033446;28;20645;-48
2023/05/31 08:24:28;;;;;;;2.90;2.60;;;26.30;29.70;;;;;;5033527;28;20196;-48
2023/05/31 08:26:55;;;;;;;4.63;2.80;;;26.50;29.90;;;;;;5033550;28;20200;-48
2023/05/31 08:29:21;;;;;;;3.70;2.73;;;26.70;29.90;;;;;;5031403;28;20442;-47
2023/05/31 08:31:46;;;;;;;2.77;2.43;;;26.90;29.60;;;;;;5033360;28;20416;-48
2023/05/31 08:34:12;;;;;;;3.43;2.90;;;26.80;29.60;;;;;;5033295;28;20190;-47
2023/05/31 08:36:40;;;;;;;5.00;2.47;;;26.70;29.70;;;;;;5033143;28;20627;-47
2023/05/31 08:39:08;;;;;;;7.23;2.97;;;26.80;29.60;;;;;;5032880;28;20273;-47
2023/05/31 08:41:49;;;;;;;2.87;2.67;;;26.90;29.50;;;;;;5033367;28;20490;-48
2023/05/31 08:44:14;;;;;;;5.87;3.20;;;27.30;30.00;;;;;;5033078;28;20443;-48
2023/05/31 08:46:42;;;;;;;4.77;2.77;;;27.50;29.50;;;;;;5033246;28;20416;-49
2023/05/31 08:49:12;;;;;;;4.97;2.73;;;27.50;28.90;;;;;;5032466;28;20190;-50
2023/05/31 08:51:39;;;;;;;3.80;2.50;;;27.50;29.00;;;;;;5033098;28;20547;-52
2023/05/31 08:54:06;;;;;;;4.60;2.70;;;27.30;29.20;;;;;;5043347;28;20427;-52
2023/05/31 08:56:33;;;;;;;3.07;2.50;;;27.30;29.30;;;;;;5042308;28;20478;-47
2023/05/31 08:58:59;;;;;;;3.23;2.40;;;27.40;29.20;;;;;;5032488;28;20423;-47
2023/05/31 09:01:27;;;;;;;5.00;2.63;;;27.30;29.20;;;;;;5032738;28;20459;-51
2023/05/31 09:03:53;;;;;;;3.37;3.07;;;27.40;29.10;;;;;;5032956;28;20432;-47
2023/05/31 09:06:19;;;;;;;5.03;2.80;;;27.60;29.30;;;;;;5041695;28;20470;-48
2023/05/31 09:08:47;;;;;;;2.90;2.60;;;27.70;29.00;;;;;;5049990;28;20427;-49
2023/05/31 09:11:13;;;;;;;3.93;2.70;;;27.60;28.80;;;;;;5032635;28;20272;-47
2023/05/31 09:13:38;;;;;;;3.80;2.93;;;27.80;29.00;;;;;;5032338;28;20520;-50
2023/05/31 09:16:04;;;;;;;5.47;2.93;;;28.10;28.50;;;;;;5032629;28;20197;-50
2023/05/31 09:18:38;;;;;;;4.00;2.33;;;28.20;27.90;;;;;;5030571;28;20715;-48
2023/05/31 09:21:09;;;;;;;3.30;2.67;;;28.40;27.90;;;;;;5032399;28;20255;-48
2023/05/31 09:23:35;;;;;;;8.20;2.53;;;28.50;27.90;;;;;;5030778;28;20432;-49
2023/05/31 09:26:05;;;;;;;3.07;2.77;;;28.40;28.20;;;;;;5032171;28;20497;-48
2023/05/31 09:28:30;;;;;;;5.00;3.03;;;28.50;27.40;;;;;;5031828;28;20423;-47
2023/05/31 09:31:04;;;;;;;5.77;2.70;;;28.80;27.40;;;;;;5032142;28;20506;-48
2023/05/31 09:33:43;;;;;;;4.83;3.10;;;29.20;27.70;;;;;;5032287;28;20201;-47
2023/05/31 09:36:12;;;;;;;3.00;2.20;;;29.20;27.20;;;;;;5032115;28;20420;-49
2023/05/31 09:38:38;;;;;;;3.30;2.80;;;29.50;27.50;;;;;;5031594;28;20439;-47
2023/05/31 09:41:19;;;;;;;2.93;2.43;;;29.50;26.20;;;;;;5031897;28;20519;-52
2023/05/31 09:43:47;;;;;;;2.70;2.47;;;29.30;26.20;;;;;;5032064;28;20443;-48
2023/05/31 09:46:21;;;;;;;5.47;2.30;;;29.50;26.60;;;;;;5032044;28;20416;-48
2023/05/31 09:49:00;;;;;;;3.10;2.83;;;29.00;26.20;;;;;;5029920;28;20428;-47
2023/05/31 09:51:27;;;;;;;4.50;2.87;;;29.00;26.30;;;;;;5039422;28;20530;-48
2023/05/31 09:53:55;;;;;;;4.13;2.90;;;29.20;26.30;;;;;;5043097;28;20428;-48
2023/05/31 09:56:22;;;;;;;4.97;2.30;;;29.30;25.70;;;;;;5031789;28;20446;-48
2023/05/31 09:58:49;;;;;;;3.93;3.00;;;29.50;26.40;;;;;;5031251;28;20935;-47
2023/05/31 10:01:15;;;;;;;2.60;2.40;;;29.80;25.80;;;;;;5031646;28;20432;-48
2023/05/31 10:03:42;;;;;;;4.83;2.53;;;30.00;25.90;;;;;;5031558;28;20420;-48
2023/05/31 10:06:08;;;;;;;3.67;2.40;;;30.30;26.20;;;;;;5038893;28;20466;-48
2023/05/31 10:08:34;;;;;;;3.40;2.73;;;30.50;25.00;;;;;;5050483;28;20431;-47
2023/05/31 10:11:01;;;;;;;3.00;2.40;;;30.60;24.80;;;;;;5031671;28;20563;-48
2023/05/31 10:13:28;;;;;;;6.47;3.00;;;30.60;24.50;;;;;;5031542;28;20551;-48
2023/05/31 10:15:56;;;;;;;2.90;2.60;;;30.70;24.10;;;;;;5030323;28;20432;-50
2023/05/31 10:18:31;;;;;;;6.83;2.93;;;31.10;24.60;;;;;;5031155;28;20503;-47
2023/05/31 10:21:24;;;;;;;5.73;2.57;;;30.80;23.30;;;;;;5031561;28;20576;-48
2023/05/31 10:23:55;;;;;;;3.23;2.47;;;30.50;23.80;;;;;;5032194;28;20443;-48
2023/05/31 10:26:22;;;;;;;3.30;3.00;;;30.10;24.10;;;;;;5038040;28;20582;-47
2023/05/31 10:29:15;;;;;;;3.13;2.40;;;30.00;24.40;;;;;;5037594;28;20919;-48
2023/05/31 10:31:51;;;;;;;5.73;2.33;;;29.70;24.60;;;;;;5038031;28;20930;-47
2023/05/31 10:34:20;;;;;;;4.27;2.23;;;29.70;24.40;;;;;;5038202;28;20833;-48
2023/05/31 10:36:46;;;;;;;4.20;2.77;;;30.10;24.30;;;;;;5037941;28;20477;-49
2023/05/31 10:39:24;;;;;;;4.33;2.50;;;30.50;25.00;;;;;;5037639;28;20427;-47
2023/05/31 10:42:06;;;;;;;4.47;2.93;;;30.90;24.00;;;;;;5043709;28;20430;-48
2023/05/31 10:44:40;;;;;;;3.93;2.60;;;31.00;23.60;;;;;;5057946;28;20419;-48
2023/05/31 10:47:09;;;;;;;4.00;2.50;;;31.30;23.70;;;;;;5057838;28;20419;-49
2023/05/31 10:49:36;;;;;;;4.20;2.70;;;31.40;23.20;;;;;;5057846;28;20430;-48
2023/05/31 10:52:08;;;;;;;4.20;2.83;;;31.50;23.00;;;;;;5057847;28;20930;-48
2023/05/31 10:54:33;;;;;;;2.73;2.50;;;31.70;23.20;;;;;;5043552;28;21076;-49
2023/05/31 10:57:03;;;;;;;2.60;2.40;;;31.70;23.30;;;;;;5037801;28;20566;-49
2023/05/31 10:59:38;;;;;;;2.70;2.50;;;31.60;22.90;;;;;;5037136;28;20664;-48
2023/05/31 11:02:05;;;;;;;4.93;2.60;;;31.80;22.60;;;;;;5037835;28;20505;-48
2023/05/31 11:04:31;;;;;;;5.73;2.43;;;32.20;23.80;;;;;;5037951;28;20467;-51
2023/05/31 11:07:22;;;;;;;3.33;2.17;;;31.90;23.20;;;;;;5052001;28;20463;-51
2023/05/31 11:09:59;;;;;;;5.27;2.57;;;32.00;22.80;;;;;;5045322;28;20220;-49
2023/05/31 11:12:36;;;;;;;3.10;2.73;;;32.30;23.20;;;;;;5037432;28;20435;-49
2023/05/31 11:15:04;;;;;;;3.00;2.70;;;32.50;23.00;;;;;;5037628;28;20503;-49
2023/05/31 11:17:40;;;;;;;3.30;2.60;;;32.20;22.60;;;;;;5037186;28;20490;-48
2023/05/31 11:20:06;;;;;;;3.43;2.33;;;32.30;22.70;;;;;;5037614;28;20972;-49
2023/05/31 11:22:32;;;;;;;3.27;2.33;;;32.30;23.00;;;;;;5037492;28;20502;-48
2023/05/31 11:24:58;;;;;;;3.23;2.50;;;32.40;22.80;;;;;;5037646;28;20432;-49
2023/05/31 11:27:38;;;;;;;3.97;2.73;;;32.10;22.60;;;;;;5037295;28;20201;-50
2023/05/31 11:30:08;;;;;;;3.30;2.47;;;32.10;23.20;;;;;;5037580;28;20184;-48
2023/05/31 11:32:34;;;;;;;4.90;2.50;;;32.20;22.60;;;;;;5040114;28;20478;-48
2023/05/31 11:35:08;;;;;;;3.10;2.40;;;32.20;22.70;;;;;;5050431;28;20459;-48
2023/05/31 11:37:36;;;;;;;3.40;2.40;;;32.10;22.70;;;;;;5034017;28;20255;-48
2023/05/31 11:40:06;;;;;;;5.70;2.63;;;32.30;22.60;;;;;;5041048;28;20427;-49
2023/05/31 11:42:33;;;;;;;5.83;2.63;;;32.40;22.40;;;;;;5054287;28;20442;-49
2023/05/31 11:45:04;;;;;;;2.77;2.43;;;32.70;23.10;;;;;;5054264;28;20778;-48
2023/05/31 11:47:45;;;;;;;5.10;3.30;;;32.50;23.00;;;;;;5054064;28;20447;-51
2023/05/31 11:50:16;;;;;;;5.80;2.33;;;32.60;22.70;;;;;;5054253;28;20443;-48
2023/05/31 11:52:42;;;;;;;2.47;2.17;;;32.80;23.10;;;;;;5053996;28;20829;-48
2023/05/31 11:55:09;;;;;;;3.80;2.30;;;32.90;21.80;;;;;;5035201;28;20469;-48
2023/05/31 11:57:42;;;;;;;6.40;2.23;;;32.70;21.60;;;;;;5033569;28;20271;-49
2023/05/31 12:00:11;;;;;;;2.50;2.30;;;32.70;22.10;;;;;;5034183;28;20440;-49
2023/05/31 12:02:44;;;;;;;2.70;2.50;;;32.90;22.10;;;;;;5032704;28;20420;-49
2023/05/31 12:05:15;;;;;;;5.60;2.30;;;32.40;22.00;;;;;;5033679;28;20549;-49
2023/05/31 12:07:41;;;;;;;3.77;2.37;;;32.30;22.40;;;;;;5033426;28;20447;-49
2023/05/31 12:10:08;;;;;;;2.80;2.30;;;32.50;21.60;;;;;;5033818;28;20455;-50
2023/05/31 12:12:35;;;;;;;6.00;2.50;;;32.70;21.50;;;;;;5033856;28;20424;-48
2023/05/31 12:15:01;;;;;;;3.67;2.37;;;32.70;21.20;;;;;;5033540;28;20929;-51
2023/05/31 12:17:30;;;;;;;3.50;2.50;;;32.40;21.10;;;;;;5033196;28;20479;-48
2023/05/31 12:19:55;;;;;;;3.07;2.77;;;32.60;21.40;;;;;;5033689;28;20425;-49
2023/05/31 12:22:21;;;;;;;3.10;2.40;;;32.50;20.70;;;;;;5033727;28;20435;-48
2023/05/31 12:24:51;;;;;;;2.77;2.10;;;32.30;20.30;;;;;;5033568;28;20201;-50
2023/05/31 12:27:19;;;;;;;2.70;2.10;;;32.60;20.80;;;;;;5039631;28;20431;-53
2023/05/31 12:29:44;;;;;;;3.03;2.23;;;32.80;21.30;;;;;;5052677;28;20430;-50
2023/05/31 12:32:10;;;;;;;4.30;2.40;;;33.10;20.30;;;;;;5053512;28;20522;-50
2023/05/31 12:34:37;;;;;;;2.40;2.20;;;33.10;19.70;;;;;;5053442;28;20196;-50
2023/05/31 12:37:08;;;;;;;4.57;2.20;;;32.90;20.60;;;;;;5052905;28;20217;-52
2023/05/31 12:39:34;;;;;;;2.53;1.87;;;33.00;20.00;;;;;;5053088;28;20899;-53
2023/05/31 12:42:01;;;;;;;4.67;2.90;;;32.80;19.80;;;;;;5053184;28;20854;-52
2023/05/31 12:44:27;;;;;;;5.97;2.90;;;32.70;19.90;;;;;;5052926;28;20439;-52
2023/05/31 12:47:00;;;;;;;3.43;2.10;;;33.10;20.30;;;;;;5052648;28;20925;-52
2023/05/31 12:49:30;;;;;;;3.93;2.10;;;33.00;19.60;;;;;;5052888;28;20436;-53
2023/05/31 12:52:07;;;;;;;2.70;2.00;;;33.00;19.90;;;;;;5052908;28;20431;-52